sensor_id;sensor_type;location;lat;lon;timestamp;P1;durP1;ratioP1;P2;durP2;ratioP2
18685;SDS011;9473;52.342;13.110;2022-10-26T00:00:09;6.03;;;2.45;;
18685;SDS011;9473;52.342;13.110;2022-10-26T00:02:36;6.10;;;2.75;;
18685;SDS011;9473;52.342;13.110;2022-10-26T00:05:03;5.15;;;2.83;;
18685;SDS011;9473;52.342;13.110;2022-10-26T00:07:30;4.40;;;2.60;;
18685;SDS011;9473;52.342;13.110;2022-10-26T00:09:57;4.15;;;1.92;;
18685;SDS011;9473;52.342;13.110;2022-10-26T00:12:25;2.70;;;1.92;;
18685;SDS011;9473;52.342;13.110;2022-10-26T00:14:52;5.53;;;1.77;;
18685;SDS011;9473;52.342;13.110;2022-10-26T00:17:19;2.97;;;1.67;;
18685;SDS011;9473;52.342;13.110;2022-10-26T00:19:46;9.93;;;2.00;;
18685;SDS011;9473;52.342;13.110;2022-10-26T00:22:13;5.22;;;2.08;;
18685;SDS011;9473;52.342;13.110;2022-10-26T00:24:40;4.68;;;2.17;;
18685;SDS011;9473;52.342;13.110;2022-10-26T00:27:07;3.22;;;1.98;;
18685;SDS011;9473;52.342;13.110;2022-10-26T00:29:35;4.75;;;2.38;;
18685;SDS011;9473;52.342;13.110;2022-10-26T00:32:02;5.18;;;2.83;;
18685;SDS011;9473;52.342;13.110;2022-10-26T00:34:30;5.75;;;3.10;;
18685;SDS011;9473;52.342;13.110;2022-10-26T00:36:57;6.07;;;2.55;;
18685;SDS011;9473;52.342;13.110;2022-10-26T00:39:24;4.45;;;2.28;;
18685;SDS011;9473;52.342;13.110;2022-10-26T00:41:51;5.10;;;2.53;;
18685;SDS011;9473;52.342;13.110;2022-10-26T00:47:05;6.18;;;2.50;;
18685;SDS011;9473;52.342;13.110;2022-10-26T00:49:32;13.50;;;2.92;;
18685;SDS011;9473;52.342;13.110;2022-10-26T00:51:59;5.63;;;1.88;;
18685;SDS011;9473;52.342;13.110;2022-10-26T00:54:26;4.25;;;1.67;;
18685;SDS011;9473;52.342;13.110;2022-10-26T00:56:53;2.25;;;1.65;;
18685;SDS011;9473;52.342;13.110;2022-10-26T00:59:20;9.52;;;2.55;;
18685;SDS011;9473;52.342;13.110;2022-10-26T01:01:48;7.78;;;3.10;;
18685;SDS011;9473;52.342;13.110;2022-10-26T01:04:16;7.88;;;3.05;;
18685;SDS011;9473;52.342;13.110;2022-10-26T01:06:43;5.80;;;2.20;;
18685;SDS011;9473;52.342;13.110;2022-10-26T01:09:10;6.00;;;2.30;;
18685;SDS011;9473;52.342;13.110;2022-10-26T01:11:38;6.97;;;2.85;;
18685;SDS011;9473;52.342;13.110;2022-10-26T01:14:05;6.93;;;2.55;;
18685;SDS011;9473;52.342;13.110;2022-10-26T01:16:38;3.78;;;1.83;;
18685;SDS011;9473;52.342;13.110;2022-10-26T01:19:12;8.02;;;2.42;;
18685;SDS011;9473;52.342;13.110;2022-10-26T01:21:49;6.65;;;2.13;;
18685;SDS011;9473;52.342;13.110;2022-10-26T01:24:20;7.63;;;2.30;;
18685;SDS011;9473;52.342;13.110;2022-10-26T01:26:52;5.47;;;2.20;;
18685;SDS011;9473;52.342;13.110;2022-10-26T01:29:28;2.90;;;1.60;;
18685;SDS011;9473;52.342;13.110;2022-10-26T01:32:03;6.60;;;1.80;;
18685;SDS011;9473;52.342;13.110;2022-10-26T01:34:33;2.67;;;1.92;;
18685;SDS011;9473;52.342;13.110;2022-10-26T01:37:03;3.33;;;1.85;;
18685;SDS011;9473;52.342;13.110;2022-10-26T01:39:34;3.90;;;1.75;;
18685;SDS011;9473;52.342;13.110;2022-10-26T01:42:09;3.67;;;1.40;;
18685;SDS011;9473;52.342;13.110;2022-10-26T01:44:37;2.97;;;1.20;;
18685;SDS011;9473;52.342;13.110;2022-10-26T01:47:08;3.20;;;1.30;;
18685;SDS011;9473;52.342;13.110;2022-10-26T01:49:37;4.57;;;1.63;;
18685;SDS011;9473;52.342;13.110;2022-10-26T01:52:05;3.60;;;1.50;;
18685;SDS011;9473;52.342;13.110;2022-10-26T01:54:34;4.32;;;1.83;;
18685;SDS011;9473;52.342;13.110;2022-10-26T01:57:02;4.15;;;1.50;;
18685;SDS011;9473;52.342;13.110;2022-10-26T01:59:31;2.85;;;1.45;;
18685;SDS011;9473;52.342;13.110;2022-10-26T02:02:12;2.60;;;1.40;;
18685;SDS011;9473;52.342;13.110;2022-10-26T02:04:45;2.53;;;1.27;;
18685;SDS011;9473;52.342;13.110;2022-10-26T02:07:17;2.03;;;1.40;;
18685;SDS011;9473;52.342;13.110;2022-10-26T02:09:50;3.33;;;1.45;;
18685;SDS011;9473;52.342;13.110;2022-10-26T02:12:20;2.45;;;1.27;;
18685;SDS011;9473;52.342;13.110;2022-10-26T02:14:48;1.63;;;1.27;;
18685;SDS011;9473;52.342;13.110;2022-10-26T02:17:19;4.63;;;1.70;;
18685;SDS011;9473;52.342;13.110;2022-10-26T02:19:49;2.60;;;1.20;;
18685;SDS011;9473;52.342;13.110;2022-10-26T02:22:18;2.65;;;1.45;;
18685;SDS011;9473;52.342;13.110;2022-10-26T02:24:46;2.20;;;1.63;;
18685;SDS011;9473;52.342;13.110;2022-10-26T02:27:15;2.17;;;1.30;;
18685;SDS011;9473;52.342;13.110;2022-10-26T02:29:44;5.07;;;1.50;;
18685;SDS011;9473;52.342;13.110;2022-10-26T02:32:13;2.78;;;1.25;;
18685;SDS011;9473;52.342;13.110;2022-10-26T02:34:41;2.00;;;1.10;;
18685;SDS011;9473;52.342;13.110;2022-10-26T02:37:10;1.60;;;1.15;;
18685;SDS011;9473;52.342;13.110;2022-10-26T02:39:39;2.85;;;1.40;;
18685;SDS011;9473;52.342;13.110;2022-10-26T02:42:06;4.28;;;1.40;;
18685;SDS011;9473;52.342;13.110;2022-10-26T02:44:35;4.47;;;1.35;;
18685;SDS011;9473;52.342;13.110;2022-10-26T02:47:03;5.00;;;1.58;;
18685;SDS011;9473;52.342;13.110;2022-10-26T02:49:30;2.95;;;1.35;;
18685;SDS011;9473;52.342;13.110;2022-10-26T02:52:00;3.25;;;1.15;;
18685;SDS011;9473;52.342;13.110;2022-10-26T02:54:29;1.85;;;1.20;;
18685;SDS011;9473;52.342;13.110;2022-10-26T02:56:58;2.22;;;1.30;;
18685;SDS011;9473;52.342;13.110;2022-10-26T02:59:27;4.70;;;1.35;;
18685;SDS011;9473;52.342;13.110;2022-10-26T03:01:54;1.60;;;0.90;;
18685;SDS011;9473;52.342;13.110;2022-10-26T03:04:26;1.65;;;1.00;;
18685;SDS011;9473;52.342;13.110;2022-10-26T03:06:53;3.83;;;1.20;;
18685;SDS011;9473;52.342;13.110;2022-10-26T03:09:22;5.60;;;1.20;;
18685;SDS011;9473;52.342;13.110;2022-10-26T03:11:49;3.85;;;1.30;;
18685;SDS011;9473;52.342;13.110;2022-10-26T03:14:15;2.20;;;1.30;;
18685;SDS011;9473;52.342;13.110;2022-10-26T03:16:42;4.43;;;1.60;;
18685;SDS011;9473;52.342;13.110;2022-10-26T03:19:09;2.72;;;1.40;;
18685;SDS011;9473;52.342;13.110;2022-10-26T03:21:36;3.67;;;1.58;;
18685;SDS011;9473;52.342;13.110;2022-10-26T03:24:03;4.60;;;1.60;;
18685;SDS011;9473;52.342;13.110;2022-10-26T03:26:32;8.50;;;1.80;;
18685;SDS011;9473;52.342;13.110;2022-10-26T03:28:59;9.07;;;1.90;;
18685;SDS011;9473;52.342;13.110;2022-10-26T03:31:26;4.72;;;1.60;;
18685;SDS011;9473;52.342;13.110;2022-10-26T03:33:53;1.70;;;1.20;;
18685;SDS011;9473;52.342;13.110;2022-10-26T03:36:19;2.33;;;1.50;;
18685;SDS011;9473;52.342;13.110;2022-10-26T03:38:46;3.22;;;1.15;;
18685;SDS011;9473;52.342;13.110;2022-10-26T03:41:13;1.98;;;1.42;;
18685;SDS011;9473;52.342;13.110;2022-10-26T03:43:41;2.67;;;1.38;;
18685;SDS011;9473;52.342;13.110;2022-10-26T03:46:08;2.72;;;1.48;;
18685;SDS011;9473;52.342;13.110;2022-10-26T03:48:35;1.70;;;1.20;;
18685;SDS011;9473;52.342;13.110;2022-10-26T03:51:02;1.30;;;0.90;;
18685;SDS011;9473;52.342;13.110;2022-10-26T03:53:29;2.60;;;1.17;;
18685;SDS011;9473;52.342;13.110;2022-10-26T03:55:56;2.35;;;1.20;;
18685;SDS011;9473;52.342;13.110;2022-10-26T03:58:23;1.77;;;1.20;;
18685;SDS011;9473;52.342;13.110;2022-10-26T04:00:51;2.72;;;1.40;;
18685;SDS011;9473;52.342;13.110;2022-10-26T04:03:19;2.65;;;1.23;;
18685;SDS011;9473;52.342;13.110;2022-10-26T04:05:45;4.75;;;1.60;;
18685;SDS011;9473;52.342;13.110;2022-10-26T04:08:13;2.28;;;1.50;;
18685;SDS011;9473;52.342;13.110;2022-10-26T04:10:40;3.25;;;1.48;;
18685;SDS011;9473;52.342;13.110;2022-10-26T04:13:07;3.42;;;1.58;;
18685;SDS011;9473;52.342;13.110;2022-10-26T04:15:35;3.13;;;1.38;;
18685;SDS011;9473;52.342;13.110;2022-10-26T04:18:03;2.47;;;1.52;;
18685;SDS011;9473;52.342;13.110;2022-10-26T04:20:31;3.20;;;1.58;;
18685;SDS011;9473;52.342;13.110;2022-10-26T04:22:59;4.25;;;1.50;;
18685;SDS011;9473;52.342;13.110;2022-10-26T04:25:26;3.08;;;1.48;;
18685;SDS011;9473;52.342;13.110;2022-10-26T04:27:53;2.15;;;1.30;;
18685;SDS011;9473;52.342;13.110;2022-10-26T04:30:20;3.42;;;1.50;;
18685;SDS011;9473;52.342;13.110;2022-10-26T04:32:47;2.78;;;1.50;;
18685;SDS011;9473;52.342;13.110;2022-10-26T04:35:15;1.85;;;1.40;;
18685;SDS011;9473;52.342;13.110;2022-10-26T04:37:42;4.57;;;1.42;;
18685;SDS011;9473;52.342;13.110;2022-10-26T04:40:09;3.35;;;1.40;;
18685;SDS011;9473;52.342;13.110;2022-10-26T04:42:40;2.30;;;1.38;;
18685;SDS011;9473;52.342;13.110;2022-10-26T04:45:07;2.60;;;1.33;;
18685;SDS011;9473;52.342;13.110;2022-10-26T04:47:34;2.75;;;1.63;;
18685;SDS011;9473;52.342;13.110;2022-10-26T04:50:01;6.80;;;1.70;;
18685;SDS011;9473;52.342;13.110;2022-10-26T04:52:29;2.47;;;1.60;;
18685;SDS011;9473;52.342;13.110;2022-10-26T04:54:56;4.63;;;1.70;;
18685;SDS011;9473;52.342;13.110;2022-10-26T04:57:23;3.33;;;1.80;;
18685;SDS011;9473;52.342;13.110;2022-10-26T04:59:50;3.65;;;1.90;;
18685;SDS011;9473;52.342;13.110;2022-10-26T05:02:17;4.30;;;1.80;;
18685;SDS011;9473;52.342;13.110;2022-10-26T05:04:45;3.45;;;1.77;;
18685;SDS011;9473;52.342;13.110;2022-10-26T05:07:11;4.95;;;2.13;;
18685;SDS011;9473;52.342;13.110;2022-10-26T05:09:40;4.75;;;1.73;;
18685;SDS011;9473;52.342;13.110;2022-10-26T05:12:07;5.07;;;1.90;;
18685;SDS011;9473;52.342;13.110;2022-10-26T05:14:33;4.57;;;2.50;;
18685;SDS011;9473;52.342;13.110;2022-10-26T05:17:00;5.13;;;2.10;;
18685;SDS011;9473;52.342;13.110;2022-10-26T05:19:27;3.97;;;2.10;;
18685;SDS011;9473;52.342;13.110;2022-10-26T05:21:54;3.40;;;2.00;;
18685;SDS011;9473;52.342;13.110;2022-10-26T05:24:21;3.67;;;1.75;;
18685;SDS011;9473;52.342;13.110;2022-10-26T05:26:49;5.55;;;1.70;;
18685;SDS011;9473;52.342;13.110;2022-10-26T05:29:16;4.65;;;1.70;;
18685;SDS011;9473;52.342;13.110;2022-10-26T05:31:43;3.65;;;1.98;;
18685;SDS011;9473;52.342;13.110;2022-10-26T05:34:10;2.90;;;1.58;;
18685;SDS011;9473;52.342;13.110;2022-10-26T05:36:37;4.13;;;1.55;;
18685;SDS011;9473;52.342;13.110;2022-10-26T05:39:04;5.38;;;2.22;;
18685;SDS011;9473;52.342;13.110;2022-10-26T05:41:31;2.80;;;1.92;;
18685;SDS011;9473;52.342;13.110;2022-10-26T05:43:59;2.90;;;1.77;;
18685;SDS011;9473;52.342;13.110;2022-10-26T05:46:26;6.20;;;1.67;;
18685;SDS011;9473;52.342;13.110;2022-10-26T05:48:53;3.08;;;1.90;;
18685;SDS011;9473;52.342;13.110;2022-10-26T05:51:20;3.75;;;2.15;;
18685;SDS011;9473;52.342;13.110;2022-10-26T05:53:47;3.88;;;1.92;;
18685;SDS011;9473;52.342;13.110;2022-10-26T05:56:16;4.88;;;2.15;;
18685;SDS011;9473;52.342;13.110;2022-10-26T05:58:44;4.18;;;1.98;;
18685;SDS011;9473;52.342;13.110;2022-10-26T06:01:15;4.45;;;2.00;;
18685;SDS011;9473;52.342;13.110;2022-10-26T06:03:51;4.13;;;2.22;;
18685;SDS011;9473;52.342;13.110;2022-10-26T06:06:21;4.97;;;2.03;;
18685;SDS011;9473;52.342;13.110;2022-10-26T06:08:48;4.65;;;2.05;;
18685;SDS011;9473;52.342;13.110;2022-10-26T06:11:15;4.53;;;2.42;;
18685;SDS011;9473;52.342;13.110;2022-10-26T06:13:42;7.07;;;2.50;;
18685;SDS011;9473;52.342;13.110;2022-10-26T06:16:30;4.05;;;2.30;;
18685;SDS011;9473;52.342;13.110;2022-10-26T06:19:02;3.80;;;2.00;;
18685;SDS011;9473;52.342;13.110;2022-10-26T06:21:46;3.42;;;2.00;;
18685;SDS011;9473;52.342;13.110;2022-10-26T06:24:18;3.80;;;2.33;;
18685;SDS011;9473;52.342;13.110;2022-10-26T06:26:49;3.50;;;2.00;;
18685;SDS011;9473;52.342;13.110;2022-10-26T06:29:21;2.70;;;1.98;;
18685;SDS011;9473;52.342;13.110;2022-10-26T06:31:51;4.65;;;2.30;;
18685;SDS011;9473;52.342;13.110;2022-10-26T06:34:20;3.65;;;2.25;;
18685;SDS011;9473;52.342;13.110;2022-10-26T06:36:48;2.60;;;1.95;;
18685;SDS011;9473;52.342;13.110;2022-10-26T06:39:15;3.50;;;2.20;;
18685;SDS011;9473;52.342;13.110;2022-10-26T06:41:43;3.63;;;2.13;;
18685;SDS011;9473;52.342;13.110;2022-10-26T06:44:11;3.75;;;2.65;;
18685;SDS011;9473;52.342;13.110;2022-10-26T06:46:42;4.10;;;2.28;;
18685;SDS011;9473;52.342;13.110;2022-10-26T06:49:15;8.40;;;2.28;;
18685;SDS011;9473;52.342;13.110;2022-10-26T06:51:45;4.68;;;2.80;;
18685;SDS011;9473;52.342;13.110;2022-10-26T06:54:16;6.22;;;3.25;;
18685;SDS011;9473;52.342;13.110;2022-10-26T06:56:44;3.88;;;2.45;;
18685;SDS011;9473;52.342;13.110;2022-10-26T06:59:13;5.55;;;2.65;;
18685;SDS011;9473;52.342;13.110;2022-10-26T07:01:42;5.05;;;2.47;;
18685;SDS011;9473;52.342;13.110;2022-10-26T07:04:08;5.45;;;2.40;;
18685;SDS011;9473;52.342;13.110;2022-10-26T07:06:37;3.95;;;2.08;;
18685;SDS011;9473;52.342;13.110;2022-10-26T07:09:04;3.63;;;2.13;;
18685;SDS011;9473;52.342;13.110;2022-10-26T07:11:30;4.78;;;2.50;;
18685;SDS011;9473;52.342;13.110;2022-10-26T07:13:57;5.05;;;2.85;;
18685;SDS011;9473;52.342;13.110;2022-10-26T07:16:24;4.18;;;2.22;;
18685;SDS011;9473;52.342;13.110;2022-10-26T07:18:51;4.78;;;2.38;;
18685;SDS011;9473;52.342;13.110;2022-10-26T07:21:18;5.40;;;2.10;;
18685;SDS011;9473;52.342;13.110;2022-10-26T07:23:46;6.80;;;2.50;;
18685;SDS011;9473;52.342;13.110;2022-10-26T07:26:14;5.88;;;2.63;;
18685;SDS011;9473;52.342;13.110;2022-10-26T07:28:40;4.10;;;2.40;;
18685;SDS011;9473;52.342;13.110;2022-10-26T07:31:07;5.28;;;2.67;;
18685;SDS011;9473;52.342;13.110;2022-10-26T07:33:34;7.10;;;2.63;;
18685;SDS011;9473;52.342;13.110;2022-10-26T07:36:01;5.75;;;2.90;;
18685;SDS011;9473;52.342;13.110;2022-10-26T07:38:28;3.83;;;2.30;;
18685;SDS011;9473;52.342;13.110;2022-10-26T07:40:56;4.22;;;2.35;;
18685;SDS011;9473;52.342;13.110;2022-10-26T07:43:23;5.05;;;2.97;;
18685;SDS011;9473;52.342;13.110;2022-10-26T07:45:50;3.40;;;2.17;;
18685;SDS011;9473;52.342;13.110;2022-10-26T07:48:17;5.72;;;2.60;;
18685;SDS011;9473;52.342;13.110;2022-10-26T07:50:44;6.32;;;2.72;;
18685;SDS011;9473;52.342;13.110;2022-10-26T07:53:11;5.75;;;3.30;;
18685;SDS011;9473;52.342;13.110;2022-10-26T07:55:38;5.45;;;2.95;;
18685;SDS011;9473;52.342;13.110;2022-10-26T07:58:06;6.45;;;3.03;;
18685;SDS011;9473;52.342;13.110;2022-10-26T08:00:33;6.43;;;3.53;;
18685;SDS011;9473;52.342;13.110;2022-10-26T08:03:00;6.03;;;2.90;;
18685;SDS011;9473;52.342;13.110;2022-10-26T08:05:27;9.50;;;3.72;;
18685;SDS011;9473;52.342;13.110;2022-10-26T08:07:54;5.35;;;3.17;;
18685;SDS011;9473;52.342;13.110;2022-10-26T08:10:21;9.18;;;4.13;;
18685;SDS011;9473;52.342;13.110;2022-10-26T08:12:47;7.15;;;3.63;;
18685;SDS011;9473;52.342;13.110;2022-10-26T08:15:16;7.05;;;3.58;;
18685;SDS011;9473;52.342;13.110;2022-10-26T08:17:43;8.07;;;4.00;;
18685;SDS011;9473;52.342;13.110;2022-10-26T08:20:10;6.75;;;4.15;;
18685;SDS011;9473;52.342;13.110;2022-10-26T08:22:37;7.35;;;4.07;;
18685;SDS011;9473;52.342;13.110;2022-10-26T08:25:04;9.30;;;4.30;;
18685;SDS011;9473;52.342;13.110;2022-10-26T08:27:31;7.10;;;3.90;;
18685;SDS011;9473;52.342;13.110;2022-10-26T08:29:58;8.65;;;3.97;;
18685;SDS011;9473;52.342;13.110;2022-10-26T08:32:26;10.00;;;4.45;;
18685;SDS011;9473;52.342;13.110;2022-10-26T08:34:53;10.55;;;4.70;;
18685;SDS011;9473;52.342;13.110;2022-10-26T08:37:20;8.93;;;4.63;;
18685;SDS011;9473;52.342;13.110;2022-10-26T08:39:47;7.13;;;4.15;;
18685;SDS011;9473;52.342;13.110;2022-10-26T08:42:16;11.68;;;4.97;;
18685;SDS011;9473;52.342;13.110;2022-10-26T08:44:44;7.25;;;4.47;;
18685;SDS011;9473;52.342;13.110;2022-10-26T08:47:13;9.88;;;4.55;;
18685;SDS011;9473;52.342;13.110;2022-10-26T08:52:29;11.88;;;4.75;;
18685;SDS011;9473;52.342;13.110;2022-10-26T08:54:57;9.75;;;4.75;;
18685;SDS011;9473;52.342;13.110;2022-10-26T08:57:26;11.07;;;4.95;;
18685;SDS011;9473;52.342;13.110;2022-10-26T08:59:55;7.70;;;4.40;;
18685;SDS011;9473;52.342;13.110;2022-10-26T09:02:23;9.55;;;5.38;;
18685;SDS011;9473;52.342;13.110;2022-10-26T09:04:50;7.90;;;4.38;;
18685;SDS011;9473;52.342;13.110;2022-10-26T09:07:21;8.38;;;4.10;;
18685;SDS011;9473;52.342;13.110;2022-10-26T09:09:54;7.43;;;4.55;;
18685;SDS011;9473;52.342;13.110;2022-10-26T09:12:26;11.20;;;4.70;;
18685;SDS011;9473;52.342;13.110;2022-10-26T09:14:56;8.38;;;4.75;;
18685;SDS011;9473;52.342;13.110;2022-10-26T09:17:30;8.50;;;4.50;;
18685;SDS011;9473;52.342;13.110;2022-10-26T09:20:04;11.68;;;4.72;;
18685;SDS011;9473;52.342;13.110;2022-10-26T09:22:36;9.77;;;4.60;;
18685;SDS011;9473;52.342;13.110;2022-10-26T09:25:11;12.13;;;4.68;;
18685;SDS011;9473;52.342;13.110;2022-10-26T09:27:41;8.93;;;4.28;;
18685;SDS011;9473;52.342;13.110;2022-10-26T09:30:11;9.88;;;4.30;;
18685;SDS011;9473;52.342;13.110;2022-10-26T09:32:39;10.15;;;4.60;;
18685;SDS011;9473;52.342;13.110;2022-10-26T09:35:09;6.22;;;4.00;;
18685;SDS011;9473;52.342;13.110;2022-10-26T09:37:39;7.00;;;3.72;;
18685;SDS011;9473;52.342;13.110;2022-10-26T09:40:12;9.90;;;4.32;;
18685;SDS011;9473;52.342;13.110;2022-10-26T09:42:42;7.20;;;3.47;;
18685;SDS011;9473;52.342;13.110;2022-10-26T09:45:12;9.15;;;3.97;;
18685;SDS011;9473;52.342;13.110;2022-10-26T09:47:41;8.50;;;3.58;;
18685;SDS011;9473;52.342;13.110;2022-10-26T09:50:17;7.07;;;3.88;;
18685;SDS011;9473;52.342;13.110;2022-10-26T09:52:46;8.38;;;4.20;;
18685;SDS011;9473;52.342;13.110;2022-10-26T09:55:14;8.48;;;3.67;;
18685;SDS011;9473;52.342;13.110;2022-10-26T09:57:42;8.25;;;3.75;;
18685;SDS011;9473;52.342;13.110;2022-10-26T10:00:11;7.40;;;3.30;;
18685;SDS011;9473;52.342;13.110;2022-10-26T10:02:39;8.23;;;3.42;;
18685;SDS011;9473;52.342;13.110;2022-10-26T10:07:50;6.25;;;3.15;;
18685;SDS011;9473;52.342;13.110;2022-10-26T10:10:19;5.10;;;3.20;;
18685;SDS011;9473;52.342;13.110;2022-10-26T10:12:47;6.45;;;3.17;;
18685;SDS011;9473;52.342;13.110;2022-10-26T10:15:17;10.13;;;3.65;;
18685;SDS011;9473;52.342;13.110;2022-10-26T10:17:45;6.72;;;3.28;;
18685;SDS011;9473;52.342;13.110;2022-10-26T10:20:15;6.75;;;3.83;;
18685;SDS011;9473;52.342;13.110;2022-10-26T10:22:53;7.07;;;3.67;;
18685;SDS011;9473;52.342;13.110;2022-10-26T10:25:22;6.43;;;2.97;;
18685;SDS011;9473;52.342;13.110;2022-10-26T10:27:52;6.32;;;3.28;;
18685;SDS011;9473;52.342;13.110;2022-10-26T10:30:20;10.25;;;3.00;;
18685;SDS011;9473;52.342;13.110;2022-10-26T10:32:59;7.00;;;2.85;;
18685;SDS011;9473;52.342;13.110;2022-10-26T10:35:29;5.78;;;2.88;;
18685;SDS011;9473;52.342;13.110;2022-10-26T10:37:56;4.70;;;2.80;;
18685;SDS011;9473;52.342;13.110;2022-10-26T10:40:25;9.32;;;2.92;;
18685;SDS011;9473;52.342;13.110;2022-10-26T10:42:53;8.18;;;2.90;;
18685;SDS011;9473;52.342;13.110;2022-10-26T10:45:21;5.75;;;2.70;;
18685;SDS011;9473;52.342;13.110;2022-10-26T10:47:56;4.55;;;2.55;;
18685;SDS011;9473;52.342;13.110;2022-10-26T10:50:24;5.43;;;2.80;;
18685;SDS011;9473;52.342;13.110;2022-10-26T10:52:51;5.70;;;2.65;;
18685;SDS011;9473;52.342;13.110;2022-10-26T10:55:18;6.07;;;3.03;;
18685;SDS011;9473;52.342;13.110;2022-10-26T10:57:51;7.18;;;2.80;;
18685;SDS011;9473;52.342;13.110;2022-10-26T11:00:21;8.45;;;2.80;;
18685;SDS011;9473;52.342;13.110;2022-10-26T11:03:01;11.50;;;3.20;;
18685;SDS011;9473;52.342;13.110;2022-10-26T11:05:38;4.60;;;2.30;;
18685;SDS011;9473;52.342;13.110;2022-10-26T11:08:12;5.35;;;2.28;;
18685;SDS011;9473;52.342;13.110;2022-10-26T11:10:43;7.53;;;2.30;;
18685;SDS011;9473;52.342;13.110;2022-10-26T11:13:14;9.45;;;2.30;;
18685;SDS011;9473;52.342;13.110;2022-10-26T11:15:42;5.90;;;2.10;;
18685;SDS011;9473;52.342;13.110;2022-10-26T11:18:11;4.85;;;2.28;;
18685;SDS011;9473;52.342;13.110;2022-10-26T11:20:41;6.13;;;2.25;;
18685;SDS011;9473;52.342;13.110;2022-10-26T11:23:11;4.55;;;2.13;;
18685;SDS011;9473;52.342;13.110;2022-10-26T11:25:40;6.53;;;2.25;;
18685;SDS011;9473;52.342;13.110;2022-10-26T11:28:12;3.60;;;2.05;;
18685;SDS011;9473;52.342;13.110;2022-10-26T11:30:42;4.07;;;1.70;;
18685;SDS011;9473;52.342;13.110;2022-10-26T11:33:12;4.95;;;1.83;;
18685;SDS011;9473;52.342;13.110;2022-10-26T11:35:42;4.63;;;1.90;;
18685;SDS011;9473;52.342;13.110;2022-10-26T11:38:11;4.38;;;1.70;;
18685;SDS011;9473;52.342;13.110;2022-10-26T11:40:41;5.45;;;1.90;;
18685;SDS011;9473;52.342;13.110;2022-10-26T11:43:11;4.75;;;1.98;;
18685;SDS011;9473;52.342;13.110;2022-10-26T11:45:42;6.68;;;1.70;;
18685;SDS011;9473;52.342;13.110;2022-10-26T11:48:11;7.60;;;1.95;;
18685;SDS011;9473;52.342;13.110;2022-10-26T11:50:40;4.78;;;2.00;;
18685;SDS011;9473;52.342;13.110;2022-10-26T11:53:09;3.75;;;1.70;;
18685;SDS011;9473;52.342;13.110;2022-10-26T11:55:38;5.45;;;1.80;;
18685;SDS011;9473;52.342;13.110;2022-10-26T11:58:07;3.13;;;1.70;;
18685;SDS011;9473;52.342;13.110;2022-10-26T12:00:34;2.25;;;1.33;;
18685;SDS011;9473;52.342;13.110;2022-10-26T12:03:08;4.43;;;1.67;;
18685;SDS011;9473;52.342;13.110;2022-10-26T12:05:41;5.00;;;1.60;;
18685;SDS011;9473;52.342;13.110;2022-10-26T12:08:10;3.67;;;1.60;;
18685;SDS011;9473;52.342;13.110;2022-10-26T12:10:38;3.58;;;1.42;;
18685;SDS011;9473;52.342;13.110;2022-10-26T12:13:10;4.68;;;1.20;;
18685;SDS011;9473;52.342;13.110;2022-10-26T12:15:41;2.55;;;1.20;;
18685;SDS011;9473;52.342;13.110;2022-10-26T12:18:12;3.30;;;1.45;;
18685;SDS011;9473;52.342;13.110;2022-10-26T12:20:51;4.15;;;1.13;;
18685;SDS011;9473;52.342;13.110;2022-10-26T12:23:20;3.88;;;1.27;;
18685;SDS011;9473;52.342;13.110;2022-10-26T12:25:47;6.63;;;1.10;;
18685;SDS011;9473;52.342;13.110;2022-10-26T12:28:37;2.83;;;1.02;;
18685;SDS011;9473;52.342;13.110;2022-10-26T12:33:51;4.25;;;1.20;;
18685;SDS011;9473;52.342;13.110;2022-10-26T12:39:15;3.13;;;1.10;;
18685;SDS011;9473;52.342;13.110;2022-10-26T12:41:54;5.88;;;1.10;;
18685;SDS011;9473;52.342;13.110;2022-10-26T12:44:31;3.90;;;1.25;;
18685;SDS011;9473;52.342;13.110;2022-10-26T12:46:59;1.92;;;1.00;;
18685;SDS011;9473;52.342;13.110;2022-10-26T12:52:19;3.30;;;1.40;;
18685;SDS011;9473;52.342;13.110;2022-10-26T12:54:54;3.40;;;1.23;;
18685;SDS011;9473;52.342;13.110;2022-10-26T12:57:27;5.50;;;1.30;;
18685;SDS011;9473;52.342;13.110;2022-10-26T12:59:56;6.25;;;1.50;;
18685;SDS011;9473;52.342;13.110;2022-10-26T13:02:32;4.15;;;1.08;;
18685;SDS011;9473;52.342;13.110;2022-10-26T13:05:06;6.18;;;1.27;;
18685;SDS011;9473;52.342;13.110;2022-10-26T13:07:38;3.00;;;1.35;;
18685;SDS011;9473;52.342;13.110;2022-10-26T13:10:15;2.58;;;1.30;;
18685;SDS011;9473;52.342;13.110;2022-10-26T13:12:46;4.18;;;1.55;;
18685;SDS011;9473;52.342;13.110;2022-10-26T13:15:18;10.52;;;1.75;;
18685;SDS011;9473;52.342;13.110;2022-10-26T13:17:51;3.67;;;1.50;;
18685;SDS011;9473;52.342;13.110;2022-10-26T13:20:19;3.75;;;1.50;;
18685;SDS011;9473;52.342;13.110;2022-10-26T13:22:47;3.58;;;1.52;;
18685;SDS011;9473;52.342;13.110;2022-10-26T13:25:17;4.95;;;1.85;;
18685;SDS011;9473;52.342;13.110;2022-10-26T13:27:56;3.80;;;2.03;;
18685;SDS011;9473;52.342;13.110;2022-10-26T13:33:16;6.38;;;1.70;;
18685;SDS011;9473;52.342;13.110;2022-10-26T13:35:44;3.03;;;1.45;;
18685;SDS011;9473;52.342;13.110;2022-10-26T13:38:14;3.60;;;1.40;;
18685;SDS011;9473;52.342;13.110;2022-10-26T13:40:44;4.82;;;1.83;;
18685;SDS011;9473;52.342;13.110;2022-10-26T13:43:13;3.28;;;1.90;;
18685;SDS011;9473;52.342;13.110;2022-10-26T13:45:45;4.45;;;1.50;;
18685;SDS011;9473;52.342;13.110;2022-10-26T13:48:13;4.63;;;1.60;;
18685;SDS011;9473;52.342;13.110;2022-10-26T13:50:45;4.57;;;1.63;;
18685;SDS011;9473;52.342;13.110;2022-10-26T13:53:15;3.38;;;1.60;;
18685;SDS011;9473;52.342;13.110;2022-10-26T13:55:46;5.82;;;1.95;;
18685;SDS011;9473;52.342;13.110;2022-10-26T13:58:16;6.05;;;1.67;;
18685;SDS011;9473;52.342;13.110;2022-10-26T14:01:00;5.60;;;1.50;;
18685;SDS011;9473;52.342;13.110;2022-10-26T14:03:27;3.45;;;1.52;;
18685;SDS011;9473;52.342;13.110;2022-10-26T14:05:54;4.18;;;1.75;;
18685;SDS011;9473;52.342;13.110;2022-10-26T14:08:23;3.58;;;1.52;;
18685;SDS011;9473;52.342;13.110;2022-10-26T14:10:54;3.58;;;1.60;;
18685;SDS011;9473;52.342;13.110;2022-10-26T14:13:23;6.15;;;1.65;;
18685;SDS011;9473;52.342;13.110;2022-10-26T14:15:51;6.93;;;1.90;;
18685;SDS011;9473;52.342;13.110;2022-10-26T14:18:19;2.53;;;1.33;;
18685;SDS011;9473;52.342;13.110;2022-10-26T14:20:47;4.00;;;1.65;;
18685;SDS011;9473;52.342;13.110;2022-10-26T14:23:27;8.90;;;1.80;;
18685;SDS011;9473;52.342;13.110;2022-10-26T14:25:54;7.72;;;1.70;;
18685;SDS011;9473;52.342;13.110;2022-10-26T14:28:22;5.25;;;1.60;;
18685;SDS011;9473;52.342;13.110;2022-10-26T14:30:49;4.93;;;1.67;;
18685;SDS011;9473;52.342;13.110;2022-10-26T14:33:16;4.72;;;1.80;;
18685;SDS011;9473;52.342;13.110;2022-10-26T14:35:44;5.15;;;1.80;;
18685;SDS011;9473;52.342;13.110;2022-10-26T14:38:13;5.03;;;1.88;;
18685;SDS011;9473;52.342;13.110;2022-10-26T14:40:44;4.65;;;1.95;;
18685;SDS011;9473;52.342;13.110;2022-10-26T14:43:13;4.72;;;1.70;;
18685;SDS011;9473;52.342;13.110;2022-10-26T14:45:45;3.35;;;1.70;;
18685;SDS011;9473;52.342;13.110;2022-10-26T14:48:17;5.95;;;1.98;;
18685;SDS011;9473;52.342;13.110;2022-10-26T14:50:55;4.40;;;1.70;;
18685;SDS011;9473;52.342;13.110;2022-10-26T14:53:24;8.07;;;1.63;;
18685;SDS011;9473;52.342;13.110;2022-10-26T14:55:56;8.32;;;1.70;;
18685;SDS011;9473;52.342;13.110;2022-10-26T14:58:26;3.20;;;1.75;;
18685;SDS011;9473;52.342;13.110;2022-10-26T15:03:39;5.47;;;1.70;;
18685;SDS011;9473;52.342;13.110;2022-10-26T15:06:28;6.50;;;2.05;;
18685;SDS011;9473;52.342;13.110;2022-10-26T15:08:55;5.93;;;1.70;;
18685;SDS011;9473;52.342;13.110;2022-10-26T15:11:24;5.22;;;1.67;;
18685;SDS011;9473;52.342;13.110;2022-10-26T15:13:51;5.15;;;1.70;;
18685;SDS011;9473;52.342;13.110;2022-10-26T15:16:19;4.45;;;1.60;;
18685;SDS011;9473;52.342;13.110;2022-10-26T15:18:47;3.85;;;1.80;;
18685;SDS011;9473;52.342;13.110;2022-10-26T15:21:18;6.53;;;1.80;;